Terminal Aerodrome Forecast
Issued by NWS

Current Version | Previous Version | Text Only | Print | Product List | Glossary On
Versions: 1 2 3 4 5 6 7 8 9 10 11 12 13
000
FTUS45 KGJT 042340 AAA
TAFMTJ
TAF AMD
KMTJ 042340Z 0500/0524 33008KT P6SM FEW070 SCT250
     FM050300 12005KT P6SM SCT250
     FM051400 VRB03KT P6SM BKN250
     FM051800 21010G20KT P6SM SCT070 BKN200=

USA.gov is the U.S. government's official web portal to all federal, state and local government web resources and services.